createdAt,value
2023-05-02T00:02:06.691Z,2.25
2023-05-02T00:05:07.017Z,2.20
2023-05-02T00:07:34.149Z,2.45
2023-05-02T00:10:03.020Z,2.20
2023-05-02T00:12:30.319Z,2.40
2023-05-02T00:14:57.342Z,2.05
2023-05-02T00:17:24.458Z,2.00
2023-05-02T00:19:51.448Z,2.03
2023-05-02T00:22:18.676Z,2.33
2023-05-02T00:24:45.668Z,2.30
2023-05-02T00:27:12.668Z,2.25
2023-05-02T00:29:39.692Z,2.30
2023-05-02T00:32:07.029Z,2.28
2023-05-02T00:34:34.569Z,2.20
2023-05-02T00:37:01.567Z,2.10
2023-05-02T00:39:28.514Z,2.03
2023-05-02T00:41:58.997Z,2.25
2023-05-02T00:44:26.250Z,2.50
2023-05-02T00:46:53.715Z,2.40
2023-05-02T00:49:21.005Z,2.03
2023-05-02T00:51:48.128Z,2.38
2023-05-02T00:54:15.338Z,2.50
2023-05-02T00:56:42.556Z,2.30
2023-05-02T00:59:11.479Z,2.33
2023-05-02T01:01:58.033Z,2.25
2023-05-02T01:04:48.985Z,2.75
2023-05-02T01:07:35.338Z,2.25
2023-05-02T01:10:21.315Z,2.30
2023-05-02T01:12:57.190Z,2.10
2023-05-02T01:15:24.674Z,2.33
2023-05-02T01:17:53.756Z,2.40
2023-05-02T01:20:24.058Z,2.58
2023-05-02T01:22:52.456Z,2.55
2023-05-02T01:26:05.584Z,2.28
2023-05-02T01:28:53.568Z,2.33
2023-05-02T01:31:22.311Z,2.65
2023-05-02T01:33:50.187Z,2.53
2023-05-02T01:36:18.074Z,2.38
2023-05-02T01:38:45.786Z,2.70
2023-05-02T01:41:13.917Z,2.45
2023-05-02T01:43:42.701Z,2.30
2023-05-02T01:46:12.322Z,2.83
2023-05-02T01:48:41.041Z,2.67
2023-05-02T01:51:09.346Z,2.60
2023-05-02T01:53:37.658Z,2.70
2023-05-02T01:56:06.101Z,2.33
2023-05-02T01:58:35.793Z,2.30
2023-05-02T02:01:04.436Z,2.60
2023-05-02T02:03:32.807Z,2.17
2023-05-02T02:06:01.403Z,2.17
2023-05-02T02:08:28.459Z,2.45
2023-05-02T02:11:02.028Z,2.47
2023-05-02T02:13:54.322Z,2.20
2023-05-02T02:16:31.353Z,2.28
2023-05-02T02:19:04.710Z,2.50
2023-05-02T02:21:34.499Z,2.60
2023-05-02T02:24:04.192Z,2.30
2023-05-02T02:26:31.438Z,2.40
2023-05-02T02:29:00.116Z,2.58
2023-05-02T02:31:35.646Z,2.40
2023-05-02T02:34:03.776Z,2.22
2023-05-02T02:36:57.552Z,2.78
2023-05-02T02:39:33.555Z,2.75
2023-05-02T02:42:27.794Z,2.95
2023-05-02T02:45:17.329Z,2.40
2023-05-02T02:47:49.046Z,2.60
2023-05-02T02:50:51.489Z,2.88
2023-05-02T02:53:23.794Z,2.70
2023-05-02T02:56:20.086Z,2.60
2023-05-02T02:59:05.643Z,2.97
2023-05-02T03:01:34.782Z,2.90
2023-05-02T03:04:08.263Z,2.92
2023-05-02T03:06:37.172Z,2.65
2023-05-02T03:09:05.706Z,3.08
2023-05-02T03:11:32.746Z,2.80
2023-05-02T03:13:59.817Z,2.80
2023-05-02T03:16:40.276Z,2.85
2023-05-02T03:19:11.641Z,2.90
2023-05-02T03:21:39.106Z,2.58
2023-05-02T03:24:19.504Z,2.45
2023-05-02T03:26:48.228Z,2.90
2023-05-02T03:29:18.747Z,2.83
2023-05-02T03:31:45.763Z,2.58
2023-05-02T03:34:13.061Z,2.80
2023-05-02T03:36:41.085Z,2.85
2023-05-02T03:39:08.178Z,2.78
2023-05-02T03:41:35.736Z,2.72
2023-05-02T03:44:07.404Z,2.78
2023-05-02T03:46:34.919Z,2.90
2023-05-02T03:49:05.684Z,2.88
2023-05-02T03:51:33.998Z,2.88
2023-05-02T03:54:05.318Z,2.83
2023-05-02T03:56:33.905Z,3.03
2023-05-02T03:59:16.321Z,2.80
2023-05-02T04:01:43.960Z,3.10
2023-05-02T04:04:14.070Z,2.63
2023-05-02T04:06:47.591Z,3.63
2023-05-02T04:09:15.409Z,2.80
2023-05-02T04:11:49.509Z,2.60
2023-05-02T04:14:16.705Z,2.42
2023-05-02T04:16:52.427Z,2.40
2023-05-02T04:19:32.182Z,2.42
2023-05-02T04:21:59.775Z,2.63
2023-05-02T04:24:27.047Z,3.35
2023-05-02T04:26:55.090Z,2.75
2023-05-02T04:29:22.231Z,2.63
2023-05-02T04:31:51.015Z,2.67
2023-05-02T04:34:18.592Z,3.10
2023-05-02T04:36:47.100Z,3.10
2023-05-02T04:39:19.555Z,2.78
2023-05-02T04:41:56.943Z,2.65
2023-05-02T04:44:26.875Z,2.55
2023-05-02T04:46:55.048Z,2.63
2023-05-02T04:49:22.057Z,2.65
2023-05-02T04:51:49.316Z,3.00
2023-05-02T04:54:16.509Z,2.65
2023-05-02T04:56:44.708Z,2.83
2023-05-02T04:59:13.003Z,2.60
2023-05-02T05:01:40.380Z,2.83
2023-05-02T05:04:09.208Z,2.90
2023-05-02T05:06:36.718Z,2.30
2023-05-02T05:09:04.875Z,3.05
2023-05-02T05:11:33.975Z,2.83
2023-05-02T05:14:04.205Z,2.80
2023-05-02T05:16:33.570Z,2.42
2023-05-02T05:19:01.720Z,2.85
2023-05-02T05:21:29.204Z,2.35
2023-05-02T05:23:57.933Z,2.30
2023-05-02T05:26:28.410Z,3.20
2023-05-02T05:28:56.147Z,2.38
2023-05-02T05:31:26.333Z,2.58
2023-05-02T05:33:57.521Z,2.13
2023-05-02T05:36:25.851Z,2.70
2023-05-02T05:38:52.927Z,2.38
2023-05-02T05:41:20.359Z,2.47
2023-05-02T05:43:52.066Z,2.47
2023-05-02T05:46:19.073Z,2.70
2023-05-02T05:48:46.383Z,3.10
2023-05-02T05:51:13.516Z,2.72
2023-05-02T05:53:40.506Z,2.85
2023-05-02T05:56:12.580Z,2.67
2023-05-02T05:58:44.357Z,2.78
2023-05-02T06:01:13.622Z,2.75
2023-05-02T06:03:42.130Z,2.75
2023-05-02T06:06:09.447Z,2.90
2023-05-02T06:08:36.608Z,2.58
2023-05-02T06:11:10.864Z,2.95
2023-05-02T06:13:38.656Z,2.72
2023-05-02T06:16:07.002Z,2.70
2023-05-02T06:18:34.085Z,2.70
2023-05-02T06:21:07.357Z,2.78
2023-05-02T06:23:34.712Z,2.65
2023-05-02T06:26:03.028Z,2.72
2023-05-02T06:28:31.165Z,3.08
2023-05-02T06:31:03.627Z,3.40
2023-05-02T06:33:31.933Z,2.60
2023-05-02T06:36:01.632Z,3.10
2023-05-02T06:38:29.786Z,2.80
2023-05-02T06:40:56.942Z,2.85
2023-05-02T06:43:24.134Z,2.42
2023-05-02T06:45:54.808Z,3.05
2023-05-02T06:48:22.396Z,2.75
2023-05-02T06:50:49.914Z,2.55
2023-05-02T06:53:17.073Z,2.90
2023-05-02T06:55:46.391Z,2.90
2023-05-02T06:58:13.590Z,3.47
2023-05-02T07:00:41.662Z,3.20
2023-05-02T07:03:08.758Z,3.30
2023-05-02T07:05:35.983Z,3.90
2023-05-02T07:08:03.386Z,3.58
2023-05-02T07:10:30.425Z,4.75
2023-05-02T07:12:57.416Z,5.38
2023-05-02T07:15:24.391Z,5.63
2023-05-02T07:17:51.877Z,6.47
2023-05-02T07:20:20.026Z,8.48
2023-05-02T07:22:47.055Z,9.02
2023-05-02T07:25:14.026Z,7.90
2023-05-02T07:27:41.062Z,3.90
2023-05-02T07:30:08.666Z,5.03
2023-05-02T07:32:35.733Z,5.05
2023-05-02T07:35:02.802Z,3.97
2023-05-02T07:37:34.752Z,3.70
2023-05-02T07:40:02.365Z,5.40
2023-05-02T07:42:32.419Z,3.78
2023-05-02T07:45:00.216Z,4.05
2023-05-02T07:47:27.770Z,3.70
2023-05-02T07:49:55.864Z,4.28
2023-05-02T07:52:22.880Z,3.58
2023-05-02T07:54:50.211Z,3.85
2023-05-02T07:57:17.787Z,3.35
2023-05-02T07:59:45.342Z,3.00
2023-05-02T08:02:14.309Z,3.20
2023-05-02T08:04:41.576Z,3.22
2023-05-02T08:07:08.949Z,2.97
2023-05-02T08:09:36.015Z,2.75
2023-05-02T08:12:03.512Z,3.20
2023-05-02T08:14:30.857Z,3.42
2023-05-02T08:16:58.944Z,2.67
2023-05-02T08:19:26.022Z,2.85
2023-05-02T08:21:56.432Z,2.33
2023-05-02T08:24:23.467Z,3.15
2023-05-02T08:26:50.979Z,2.65
2023-05-02T08:29:18.020Z,2.70
2023-05-02T08:31:45.134Z,2.33
2023-05-02T08:34:12.249Z,2.88
2023-05-02T08:36:39.362Z,2.58
2023-05-02T08:39:08.308Z,2.67
2023-05-02T08:41:35.658Z,2.60
2023-05-02T08:44:04.108Z,2.97
2023-05-02T08:46:32.667Z,3.00
2023-05-02T08:49:00.802Z,2.67
2023-05-02T08:51:29.575Z,3.20
2023-05-02T08:53:58.394Z,2.72
2023-05-02T08:56:25.582Z,3.05
2023-05-02T08:58:52.643Z,2.95
2023-05-02T09:01:22.941Z,2.80
2023-05-02T09:03:50.735Z,2.88
2023-05-02T09:06:20.810Z,2.60
2023-05-02T09:08:50.418Z,2.58
2023-05-02T09:11:17.747Z,2.17
2023-05-02T09:13:48.603Z,2.40
2023-05-02T09:16:22.996Z,2.45
2023-05-02T09:18:52.909Z,2.42
2023-05-02T09:21:28.166Z,2.65
2023-05-02T09:23:57.069Z,2.83
2023-05-02T09:26:35.133Z,2.40
2023-05-02T09:29:05.541Z,2.38
2023-05-02T09:31:55.000Z,2.42
2023-05-02T09:34:23.174Z,2.47
2023-05-02T09:36:52.377Z,2.60
2023-05-02T09:39:23.815Z,2.55
2023-05-02T09:41:53.405Z,2.53
2023-05-02T10:17:10.005Z,2.83
2023-05-02T10:19:45.429Z,2.60
2023-05-02T10:22:13.386Z,2.40
2023-05-02T10:24:41.634Z,3.00
2023-05-02T10:27:08.815Z,2.72
2023-05-02T10:29:37.569Z,2.72
2023-05-02T10:32:05.738Z,2.70
2023-05-02T10:34:36.393Z,2.80
2023-05-02T10:37:03.685Z,2.75
2023-05-02T10:39:32.654Z,2.67
2023-05-02T10:42:03.310Z,2.92
2023-05-02T10:44:37.731Z,2.78
2023-05-02T10:47:21.909Z,2.55
2023-05-02T10:49:56.919Z,2.25
2023-05-02T10:52:35.703Z,2.80
2023-05-02T10:55:20.655Z,2.42
2023-05-02T10:58:08.734Z,2.63
2023-05-02T11:00:35.759Z,3.03
2023-05-02T11:03:03.372Z,2.45
2023-05-02T11:05:30.607Z,2.42
2023-05-02T11:08:15.668Z,3.20
2023-05-02T11:10:42.984Z,2.60
2023-05-02T11:13:09.944Z,4.05
2023-05-02T11:15:39.934Z,2.58
2023-05-02T11:18:14.709Z,3.10
2023-05-02T11:20:45.876Z,2.80
2023-05-02T11:23:16.495Z,2.70
2023-05-02T11:25:46.515Z,2.58
2023-05-02T11:28:42.312Z,2.90
2023-05-02T11:31:31.164Z,2.60
2023-05-02T11:34:03.400Z,3.10
2023-05-02T11:36:33.705Z,2.75
2023-05-02T11:39:05.953Z,2.75
2023-05-02T11:41:42.479Z,2.70
2023-05-02T11:44:09.945Z,3.20
2023-05-02T11:46:38.465Z,2.50
2023-05-02T11:49:09.305Z,2.58
2023-05-02T11:51:37.561Z,2.58
2023-05-02T11:54:07.704Z,2.70
2023-05-02T11:56:34.898Z,2.45
2023-05-02T11:59:03.948Z,2.55
2023-05-02T12:01:31.537Z,3.33
2023-05-02T12:04:07.270Z,2.50
2023-05-02T12:06:35.099Z,2.85
2023-05-02T12:09:10.382Z,2.85
2023-05-02T12:11:38.592Z,2.55
2023-05-02T12:14:06.935Z,2.58
2023-05-02T12:16:34.410Z,2.85
2023-05-02T12:19:02.115Z,2.38
2023-05-02T12:21:35.948Z,2.88
2023-05-02T12:24:03.674Z,3.10
2023-05-02T12:26:33.149Z,2.88
2023-05-02T12:29:02.109Z,3.15
2023-05-02T12:31:31.389Z,2.58
2023-05-02T12:34:00.484Z,2.60
2023-05-02T12:36:28.900Z,2.50
2023-05-02T12:38:59.885Z,2.53
2023-05-02T12:41:38.334Z,2.40
2023-05-02T12:44:08.375Z,2.70
2023-05-02T12:46:36.654Z,2.58
2023-05-02T12:49:09.498Z,2.65
2023-05-02T12:51:38.456Z,2.42
2023-05-02T12:54:06.838Z,2.75
2023-05-02T12:56:40.709Z,2.45
2023-05-02T12:59:08.481Z,2.80
2023-05-02T13:01:35.908Z,2.55
2023-05-02T13:04:04.005Z,2.65
2023-05-02T13:06:31.585Z,2.50
2023-05-02T13:08:59.133Z,3.25
2023-05-02T13:11:26.191Z,2.72
2023-05-02T13:13:54.130Z,2.80
2023-05-02T13:16:21.666Z,2.70
2023-05-02T13:18:48.862Z,2.65
2023-05-02T13:21:16.263Z,2.80
2023-05-02T13:23:44.371Z,2.85
2023-05-02T13:26:11.776Z,2.40
2023-05-02T13:28:38.749Z,2.60
2023-05-02T13:31:05.830Z,2.50
2023-05-02T13:33:32.813Z,2.20
2023-05-02T13:36:00.143Z,2.80
2023-05-02T13:38:27.204Z,2.80
2023-05-02T13:40:54.353Z,2.50
2023-05-02T13:43:21.591Z,2.50
2023-05-02T13:45:49.159Z,2.80
2023-05-02T13:48:16.424Z,2.58
2023-05-02T13:50:43.730Z,2.70
2023-05-02T13:53:11.390Z,2.60
2023-05-02T13:55:38.482Z,2.50
2023-05-02T13:58:06.046Z,3.03
2023-05-02T14:00:33.180Z,2.53
2023-05-02T14:03:00.374Z,3.40
2023-05-02T14:05:27.739Z,2.80
2023-05-02T14:07:54.774Z,2.90
2023-05-02T14:10:21.757Z,2.80
2023-05-02T14:12:48.981Z,2.65
2023-05-02T14:15:16.153Z,2.65
2023-05-02T14:17:43.240Z,2.67
2023-05-02T14:20:11.294Z,2.92
2023-05-02T14:22:38.290Z,2.65
2023-05-02T14:25:06.057Z,3.15
2023-05-02T14:27:33.022Z,2.50
2023-05-02T14:30:00.385Z,2.70
2023-05-02T14:32:27.787Z,2.97
2023-05-02T14:34:54.822Z,2.83
2023-05-02T14:37:22.097Z,2.58
2023-05-02T14:39:54.967Z,3.33
2023-05-02T14:42:25.801Z,2.50
2023-05-02T14:44:53.630Z,2.80
2023-05-02T14:47:21.068Z,3.08
2023-05-02T14:49:48.089Z,2.75
2023-05-02T14:52:15.120Z,2.97
2023-05-02T14:54:42.233Z,3.15
2023-05-02T14:57:09.585Z,3.20
2023-05-02T14:59:37.926Z,2.90
2023-05-02T15:02:05.248Z,2.80
2023-05-02T15:04:32.489Z,2.90
2023-05-02T15:07:02.919Z,3.00
2023-05-02T15:09:30.485Z,3.33
2023-05-02T15:11:57.502Z,2.80
2023-05-02T15:14:24.551Z,2.72
2023-05-02T15:16:52.013Z,3.53
2023-05-02T15:19:19.116Z,3.13
2023-05-02T15:21:46.145Z,2.85
2023-05-02T15:24:13.178Z,3.15
2023-05-02T15:26:41.156Z,2.90
2023-05-02T15:29:08.231Z,3.00
2023-05-02T15:31:35.381Z,2.55
2023-05-02T15:34:02.439Z,3.10
2023-05-02T15:36:30.585Z,2.80
2023-05-02T15:38:57.812Z,3.15
2023-05-02T15:41:27.734Z,2.92
2023-05-02T15:43:54.878Z,2.60
2023-05-02T15:46:22.196Z,3.08
2023-05-02T15:48:49.541Z,2.88
2023-05-02T15:51:17.099Z,2.47
2023-05-02T15:53:45.108Z,2.60
2023-05-02T15:56:12.553Z,3.63
2023-05-02T15:58:40.447Z,2.45
2023-05-02T16:01:07.949Z,2.50
2023-05-02T16:03:35.258Z,3.03
2023-05-02T16:06:05.562Z,2.83
2023-05-02T16:08:32.625Z,2.85
2023-05-02T16:11:01.533Z,2.47
2023-05-02T16:13:28.631Z,2.58
2023-05-02T16:15:56.319Z,3.00
2023-05-02T16:18:28.457Z,2.88
2023-05-02T16:20:57.216Z,2.67
2023-05-02T16:23:26.019Z,2.70
2023-05-02T16:26:02.491Z,3.38
2023-05-02T16:28:29.588Z,3.03
2023-05-02T16:30:56.963Z,3.00
2023-05-02T16:33:24.102Z,2.90
2023-05-02T16:36:01.515Z,2.60
2023-05-02T16:38:28.654Z,2.75
2023-05-02T16:40:55.703Z,3.17
2023-05-02T16:43:23.174Z,2.92
2023-05-02T16:46:03.538Z,2.50
2023-05-02T16:48:30.966Z,2.80
2023-05-02T16:50:58.718Z,2.70
2023-05-02T16:53:26.767Z,2.72
2023-05-02T16:55:54.380Z,2.88
2023-05-02T16:58:22.026Z,2.17
2023-05-02T17:00:49.194Z,2.50
2023-05-02T17:03:16.425Z,2.20
2023-05-02T17:05:43.797Z,2.25
2023-05-02T17:08:11.091Z,2.53
2023-05-02T17:10:38.174Z,2.20
2023-05-02T17:13:05.995Z,2.88
2023-05-02T17:15:38.650Z,2.70
2023-05-02T17:18:05.973Z,2.50
2023-05-02T17:20:33.387Z,2.30
2023-05-02T17:23:00.747Z,2.70
2023-05-02T17:25:27.986Z,2.42
2023-05-02T17:27:54.992Z,2.70
2023-05-02T17:30:22.243Z,2.58
2023-05-02T17:32:49.309Z,2.55
2023-05-02T17:35:17.512Z,2.67
2023-05-02T17:37:44.625Z,2.42
2023-05-02T17:40:12.482Z,2.47
2023-05-02T17:42:39.571Z,2.70
2023-05-02T17:45:07.749Z,2.40
2023-05-02T17:47:34.761Z,2.35
2023-05-02T17:50:04.936Z,2.30
2023-05-02T17:52:33.887Z,2.30
2023-05-02T17:55:01.438Z,2.85
2023-05-02T17:57:28.634Z,2.40
2023-05-02T17:59:59.849Z,2.22
2023-05-02T18:02:27.793Z,2.28
2023-05-02T18:04:54.987Z,2.25
2023-05-02T18:07:24.866Z,2.08
2023-05-02T18:09:52.164Z,2.42
2023-05-02T18:12:19.475Z,2.35
2023-05-02T18:14:46.537Z,2.20
2023-05-02T18:17:13.642Z,2.35
2023-05-02T18:19:41.481Z,2.45
2023-05-02T18:22:08.764Z,2.78
2023-05-02T18:24:36.422Z,3.33
2023-05-02T18:27:03.564Z,2.33
2023-05-02T18:29:31.324Z,2.70
2023-05-02T18:31:58.468Z,2.33
2023-05-02T18:34:25.607Z,2.60
2023-05-02T18:36:52.946Z,2.53
2023-05-02T18:39:21.686Z,2.55
2023-05-02T18:41:48.664Z,2.20
2023-05-02T18:44:15.626Z,2.67
2023-05-02T18:46:42.828Z,2.50
2023-05-02T18:49:09.916Z,2.85
2023-05-02T18:51:36.955Z,3.20
2023-05-02T18:54:04.134Z,3.30
2023-05-02T18:56:31.235Z,3.22
2023-05-02T18:58:58.909Z,3.60
2023-05-02T19:01:26.372Z,4.35
2023-05-02T19:03:54.178Z,3.88
2023-05-02T19:06:21.461Z,3.88
2023-05-02T19:08:49.243Z,4.40
2023-05-02T19:11:16.331Z,3.58
2023-05-02T19:13:43.467Z,5.15
2023-05-02T19:16:14.332Z,7.20
2023-05-02T19:18:41.491Z,7.43
2023-05-02T19:21:13.729Z,6.20
2023-05-02T19:23:41.958Z,5.70
2023-05-02T19:26:13.393Z,5.80
2023-05-02T19:28:40.466Z,5.15
2023-05-02T19:31:18.701Z,5.53
2023-05-02T19:33:52.883Z,5.47
2023-05-02T19:36:22.105Z,5.20
2023-05-02T19:38:58.364Z,5.05
2023-05-02T19:41:26.123Z,5.75
2023-05-02T19:43:53.465Z,5.35
2023-05-02T19:46:20.521Z,5.80
2023-05-02T19:48:47.771Z,5.93
2023-05-02T19:51:14.932Z,6.88
2023-05-02T19:53:42.031Z,7.30
2023-05-02T19:56:09.081Z,7.22
2023-05-02T19:58:36.208Z,7.28
2023-05-02T20:01:03.615Z,6.68
2023-05-02T20:03:30.867Z,7.57
2023-05-02T20:05:58.732Z,7.55
2023-05-02T20:08:29.114Z,6.93
2023-05-02T20:10:56.623Z,7.00
2023-05-02T20:13:23.736Z,6.45
2023-05-02T20:15:51.971Z,6.40
2023-05-02T20:18:19.944Z,6.50
2023-05-02T20:20:47.142Z,6.82
2023-05-02T20:23:14.430Z,7.10
2023-05-02T20:25:42.864Z,6.95
2023-05-02T20:28:10.436Z,6.82
2023-05-02T20:30:39.242Z,6.38
2023-05-02T20:33:14.969Z,6.18
2023-05-02T20:35:43.722Z,6.07
2023-05-02T20:38:11.287Z,5.65
2023-05-02T20:40:40.861Z,5.75
2023-05-02T20:43:08.936Z,5.85
2023-05-02T20:45:36.082Z,5.40
2023-05-02T20:48:03.259Z,5.07
2023-05-02T20:50:30.673Z,5.30
2023-05-02T20:52:58.208Z,5.78
2023-05-02T20:55:25.586Z,5.30
2023-05-02T20:57:53.708Z,5.57
2023-05-02T21:00:24.269Z,5.43
2023-05-02T21:02:51.529Z,5.35
2023-05-02T21:05:18.662Z,4.80
2023-05-02T21:07:45.805Z,4.97
2023-05-02T21:10:12.965Z,4.63
2023-05-02T21:12:40.151Z,5.00
2023-05-02T21:15:08.320Z,4.80
2023-05-02T21:17:35.511Z,4.75
2023-05-02T21:20:02.855Z,5.50
2023-05-02T21:22:30.166Z,5.13
2023-05-02T21:24:57.301Z,4.47
2023-05-02T21:27:24.464Z,5.10
2023-05-02T21:29:51.524Z,4.65
2023-05-02T21:32:18.755Z,5.00
2023-05-02T21:34:45.996Z,5.32
2023-05-02T21:37:13.016Z,5.65
2023-05-02T21:39:40.049Z,4.88
2023-05-02T21:42:07.107Z,4.88
2023-05-02T21:44:34.114Z,6.18
2023-05-02T21:47:01.197Z,5.95
2023-05-02T21:49:30.095Z,6.63
2023-05-02T21:51:58.493Z,6.25
2023-05-02T21:54:25.672Z,5.55
2023-05-02T21:56:54.215Z,6.60
2023-05-02T21:59:21.401Z,6.20
2023-05-02T22:01:48.516Z,5.97
2023-05-02T22:04:16.357Z,6.80
2023-05-02T22:06:43.793Z,6.28
2023-05-02T22:09:11.272Z,6.07
2023-05-02T22:11:38.592Z,6.20
2023-05-02T22:14:05.637Z,6.25
2023-05-02T22:16:32.803Z,6.30
2023-05-02T22:19:01.373Z,5.70
2023-05-02T22:21:29.121Z,5.75
2023-05-02T22:23:56.404Z,5.60
2023-05-02T22:26:23.779Z,6.35
2023-05-02T22:28:51.268Z,6.47
2023-05-02T22:31:19.527Z,6.70
2023-05-02T22:33:49.954Z,5.70
2023-05-02T22:36:20.718Z,5.70
2023-05-02T22:38:47.752Z,5.20
2023-05-02T22:41:14.779Z,5.32
2023-05-02T22:43:41.744Z,5.32
2023-05-02T22:46:08.799Z,6.65
2023-05-02T22:48:36.315Z,5.78
2023-05-02T22:51:03.396Z,5.88
2023-05-02T22:53:30.601Z,5.88
2023-05-02T22:55:57.622Z,5.70
2023-05-02T22:58:24.818Z,5.70
2023-05-02T23:00:52.210Z,5.55
2023-05-02T23:03:19.445Z,5.60
2023-05-02T23:05:46.594Z,5.55
2023-05-02T23:08:13.795Z,4.78
2023-05-02T23:10:40.965Z,5.40
2023-05-02T23:13:08.110Z,5.47
2023-05-02T23:15:35.328Z,5.70
2023-05-02T23:18:02.466Z,5.47
2023-05-02T23:20:29.566Z,5.03
2023-05-02T23:22:56.734Z,6.10
2023-05-02T23:25:27.490Z,6.10
2023-05-02T23:27:55.103Z,5.72
2023-05-02T23:30:22.735Z,6.40
2023-05-02T23:32:49.906Z,5.82
2023-05-02T23:35:17.055Z,5.93
2023-05-02T23:37:44.595Z,6.45
2023-05-02T23:40:11.772Z,5.88
2023-05-02T23:42:40.545Z,6.15
2023-05-02T23:45:11.119Z,6.65
2023-05-02T23:47:38.690Z,5.60
2023-05-02T23:50:06.587Z,5.82
2023-05-02T23:52:34.409Z,5.00
2023-05-02T23:55:01.725Z,5.13
2023-05-02T23:57:31.416Z,5.07
2023-05-02T23:59:58.475Z,5.82
